Latest Coastal Weather Observations for Adelaide Airport

IDS60701

Issued at 11:15 pm CST Friday 1 August 2014 (issued every 10 minutes, with the page automatically refreshed every 10 minutes)

About coastal observations | Map of coastal stations | Coastal observations for SA | Marine services | Other Formats
Station Details ID: 023034 Name: ADELAIDE AIRPORT Lat: -34.95 Lon: 138.52 Height: 2.0 m
Data from the previous 72 hours. | See also: Recent months at Adelaide Airport
Date/Time
CST
Temp

°C
Wind Pressure Rain
since 9am
mm
Weather Cloud Vis
km
Sea
Height
m
Swell
Dir
 
Speed
knots
Gust
knots
hPa Trend Height
m
Period
s
Dir
01/11:00pm 3.5 ENE 3 4 1028.7 - 0.8 - - 10 - - - -
01/10:30pm 4.0 E 3 3 1028.6 - 0.8 - - 10 - - - -
01/10:00pm 4.5 ENE 4 5 1028.5 - 0.8 - - 10 - - - -
01/09:30pm 4.8 ENE 5 5 1028.2 - 0.8 - - 10 - - - -
01/09:00pm 5.4 NE 4 5 1027.9 R 0.8 Fine Mostly clear 30 - - - -
01/08:30pm 5.2 E 4 6 1027.6 - 0.8 - Partly cloudy 10 - - - -
01/08:00pm 6.4 E 4 4 1027.0 - 0.8 - - 10 - - - -
01/07:30pm 6.8 E 5 6 1026.7 - 0.8 - Partly cloudy 10 - - - -
01/07:00pm 8.8 S 4 4 1026.2 - 0.8 - Mostly clear 10 - - - -
01/06:30pm 8.4 SSE 3 4 1025.6 - 0.8 - Mostly clear 10 - - - -
01/06:00pm 8.5 SSW 5 6 1025.2 R 0.8 Fine Mostly clear 30 - - - -
01/05:30pm 9.2 SSW 6 9 1024.8 - 0.8 - Mostly clear 10 - - - -
01/05:00pm 10.5 S 11 17 1024.3 - 0.8 - Mostly clear 10 - - - -
01/04:30pm 10.9 S 16 20 1023.7 - 0.8 - Mostly clear 10 - - - -
01/04:00pm 12.1 SSW 17 23 1023.0 - 0.8 - Partly cloudy 10 - - - -
01/03:30pm 12.3 SSW 16 22 1022.4 - 0.8 - Mostly clear 10 - - - -
01/03:00pm 12.2 SW 17 24 1022.1 R 0.8 Fine Mostly clear 30 - - - -
01/02:30pm 12.4 SSW 20 27 1021.6 - 0.8 - Mostly clear 10 - - - -
01/02:09pm 12.5 SW 16 26 1021.3 - 0.8 - Partly cloudy 10 - - - -
01/02:00pm 12.4 SW 17 22 1021.1 - 0.8 - Partly cloudy 10 - - - -
01/01:30pm 11.4 SSW 16 22 1021.0 - 0.8 - Mostly clear 10 - - - -
01/01:00pm 11.2 SW 18 23 1020.8 - 0.8 - Mostly clear 10 - - - -
01/12:32pm 9.3 SSW 27 33 1020.7 - 0.8 Showers Mostly clear 10 - - - -
01/12:30pm 9.2 SW 24 33 1020.7 - 0.8 Showers Mostly clear 10 - - - -
01/12:23pm 11.6 SW 20 30 1020.4 - 0.4 - Mostly clear 10 - - - -
01/12:00pm 11.2 SW 19 25 1020.2 R 0.4 Recent precip. Partly cloudy 25 - - - -
01/11:30am 8.3 WSW 29 40 1020.2 - 0.4 Showers Mostly clear 10 - - - -
01/11:00am 9.9 SSW 17 24 1019.8 - 0.0 - Mostly clear 10 - - - -
01/10:50am 8.8 SSW 24 38 1019.8 - 0.0 Showers Partly cloudy 10 - - - -
01/10:30am 11.0 SW 21 30 1019.2 - 0.0 - Partly cloudy 10 - - - -
01/10:00am 10.6 SW 24 37 1018.6 - 0.0 - Partly cloudy 10 - - - -
01/09:32am 10.2 SW 21 31 1017.9 - 0.0 - Partly cloudy 10 - - - -
01/09:00am 10.4 SSW 14 20 1017.1 R 12.2 Recent precip. Partly cloudy 25 - - - -
01/08:30am 10.3 SW 27 37 1016.2 - 12.2 - Mostly clear 10 - - - -
01/08:25am 10.7 SW 26 36 1016.0 - 12.2 - Mostly clear 10 - - - -
01/08:00am 10.2 WSW 25 32 1015.6 - 12.2 - Mostly clear 10 - - - -
01/07:30am 10.1 SW 28 35 1014.8 - 12.2 - Mostly clear 10 - - - -
01/07:00am 10.5 SW 25 33 1014.1 - 12.2 - Mostly clear 10 - - - -
01/06:39am 10.7 WSW 27 39 1013.5 - 12.2 - Mostly clear 10 - - - -
01/06:30am 10.8 WSW 29 38 1013.3 - 12.2 - Mostly clear 10 - - - -
01/06:00am 10.3 WSW 29 40 1012.9 R 12.2 Fine Partly cloudy 18 - - - -
01/05:30am 9.8 WSW 26 37 1012.3 - 12.2 - Mostly clear 10 - - - -
01/05:00am 8.6 W 27 37 1011.7 - 12.2 - Mostly clear 10 - - - -
01/04:54am 7.8 W 27 39 1011.9 - 12.0 - Mostly clear 10 - - - -
01/04:43am 9.5 WSW 36 45 1011.9 - 11.2 Showers Mostly clear 2 - - - -
01/04:30am 10.3 WSW 28 38 1011.3 - 11.2 - Mostly clear 10 - - - -
01/04:14am 10.3 WSW 25 37 1011.3 - 11.2 - Mostly clear 10 - - - -
01/04:00am 9.7 W 20 28 1011.1 - 11.2 - Mostly clear 10 - - - -
01/03:30am 9.4 W 23 31 1011.3 - 11.2 Showers Mostly clear 8 - - - -
01/03:13am 8.7 WSW 28 48 1011.4 - 11.2 Showers Mostly clear 10 - - - -
01/03:00am 9.4 W 21 31 1011.1 R 11.0 Recent th'storm Mostly cloudy 18 - - - -
01/02:52am 8.4 W 22 30 1011.2 - 11.0 Thunderstorm Mostly clear 10 - - - -
01/02:39am 8.8 WNW 20 28 1011.0 - 10.8 Thunderstorm Mostly clear 4 - - - -
01/02:30am 8.8 W 18 24 1010.9 - 10.8 - Mostly clear 10 - - - -
01/02:22am 8.7 W 17 23 1010.9 - 10.8 - Partly cloudy 10 - - - -
01/02:00am 8.7 WSW 23 35 1011.3 - 10.8 Showers Mostly clear 10 - - - -
01/01:52am 7.8 WSW 22 40 1011.4 - 10.8 - Mostly clear 10 - - - -
01/01:43am 8.5 WSW 36 41 1011.4 - 10.2 Showers Mostly clear 3 - - - -
01/01:30am 9.3 W 18 26 1011.1 - 10.2 - Mostly clear 10 - - - -
01/01:00am 8.2 W 15 22 1011.3 - 10.2 - Mostly clear 10 - - - -
01/12:45am 7.1 WSW 25 34 1011.3 - 10.2 - Mostly clear 10 - - - -
01/12:30am 7.8 WSW 26 39 1011.9 - 9.2 Showers Mostly clear 5 - - - -
01/12:20am 8.9 WSW 23 34 1011.7 - 8.8 Showers Mostly clear 4 - - - -
 
Date/Time
CST
Temp

°C
Wind Pressure Rain
since 9am
mm
Weather Cloud Vis
km
Sea
Height
m
Swell
Dir
 
Speed
knots
Gust
knots
hPa Trend Height
m
Period
s
Dir
31/11:30pm 10.5 W 25 37 1010.8 - 8.8 - Mostly clear 10 - - - -
31/11:00pm 10.5 W 25 34 1010.7 - 8.8 - Mostly clear 10 - - - -
31/10:30pm 10.2 W 25 32 1010.7 - 8.8 - Mostly clear 10 - - - -
31/10:00pm 9.9 W 22 34 1010.7 - 8.8 - Mostly clear 10 - - - -
31/09:45pm 10.1 W 19 29 1010.6 - 8.8 - Mostly clear 10 - - - -
31/09:30pm 9.9 W 20 26 1010.6 - 8.8 - Mostly clear 10 - - - -
31/09:00pm 9.5 W 18 29 1010.5 R 8.8 Fine Mostly clear 18 - - - -
31/08:30pm 7.7 WSW 22 32 1010.8 - 8.6 - Mostly clear 10 - - - -
31/08:21pm 8.1 SW 22 32 1010.9 - 7.2 Showers Mostly clear 3 - - - -
31/08:00pm 9.4 W 16 20 1010.1 - 7.2 - Mostly clear 10 - - - -
31/07:30pm 8.2 WSW 18 22 1010.0 - 7.2 - Mostly clear 10 - - - -
31/07:22pm 7.8 SSW 21 31 1010.1 - 7.0 Showers Mostly clear 6 - - - -
31/07:11pm 9.0 WSW 34 44 1009.9 - 6.8 Showers Mostly clear 4 - - - -
31/07:06pm 9.5 WSW 21 28 1009.7 - 6.8 - Mostly clear 10 - - - -
31/07:00pm 10.9 W 18 27 1009.3 - 6.8 - Mostly clear 10 - - - -
31/06:57pm 10.9 W 16 27 1009.2 - 6.8 - Mostly clear 10 - - - -
31/06:30pm 10.5 W 16 20 1008.9 - 6.8 - Mostly clear 10 - - - -
31/06:16pm 10.1 WSW 18 28 1008.7 - 6.8 - Mostly clear 10 - - - -
31/06:00pm 9.9 WSW 19 27 1008.6 R 6.8 Recent precip. Mostly cloudy 20 - - - -
31/05:50pm 9.9 WSW 21 31 1008.5 - 6.8 - Mostly clear 10 - - - -
31/05:30pm 9.8 SW 27 35 1008.3 - 6.8 - Mostly clear 10 - - - -
31/05:00pm 10.6 SW 24 34 1007.5 - 6.6 Rain Mostly clear 10 - - - -
31/04:51pm 10.7 SW 23 29 1007.3 - 6.6 - Mostly clear 10 - - - -
31/04:30pm 10.8 W 23 33 1006.7 - 6.6 Rain Mostly clear 8 - - - -
31/04:00pm 11.5 W 21 29 1006.3 - 6.4 - Mostly clear 10 - - - -
31/03:56pm 11.4 W 21 29 1006.2 - 6.4 - Mostly clear 10 - - - -
31/03:38pm 11.4 W 18 22 1006.3 - 6.2 Showers Mostly clear 5 - - - -
31/03:30pm 11.4 W 18 22 1005.7 - 6.0 Rain Mostly clear 7 - - - -
31/03:00pm 11.2 W 22 32 1005.7 R 5.8 Rain Mostly cloudy 5 - - - -
31/02:55pm 11.0 W 18 32 1005.8 - 5.6 Rain Mostly clear 3 - - - -
31/02:47pm 12.0 WNW 16 19 1005.3 - 4.2 Rain Mostly clear 3 - - - -
31/02:46pm 12.1 WNW 15 19 1005.4 - 4.2 Rain Mostly clear 5 - - - -
31/02:30pm 11.9 W 15 20 1005.3 - 4.2 - Mostly clear 10 - - - -
31/02:00pm 11.4 W 17 24 1005.2 - 4.2 Rain Mostly clear 7 - - - -
31/01:49pm 11.4 W 19 27 1005.3 - 4.0 Rain Mostly clear 5 - - - -
31/01:34pm 11.3 W 19 29 1005.1 - 3.8 Rain Mostly clear 4 - - - -
31/01:30pm 11.3 W 20 29 1005.0 - 3.8 Rain Mostly clear 4 - - - -
31/01:20pm 11.1 WSW 21 29 1004.9 - 3.4 Rain Mostly clear 4 - - - -
31/01:00pm 10.7 WSW 21 32 1005.0 - 3.0 Rain Mostly clear 4 - - - -
31/12:38pm 11.1 WSW 17 27 1005.0 - 2.0 Rain Mostly clear 3 - - - -
31/12:30pm 11.0 WSW 19 27 1005.1 - 1.6 Rain Mostly clear 3 - - - -
31/12:23pm 11.2 WSW 19 24 1005.1 - 1.2 Rain Mostly clear 4 - - - -
31/12:06pm 12.1 WSW 20 24 1004.8 - 0.4 Rain Mostly clear 5 - - - -
31/12:02pm 12.6 W 17 21 1004.8 - 0.2 Rain Mostly cloudy 5 - - - -
31/12:00pm 13.9 NNW 21 29 1004.8 F 0.0 Rain Mostly cloudy 6 - - - -
31/11:30am 15.0 NNW 21 31 1004.2 - 0.0 - Mostly cloudy 10 - - - -
31/11:00am 15.2 NNW 23 35 1004.8 - 0.0 - Mostly clear 10 - - - -
31/10:30am 15.4 NNW 22 35 1005.3 - 0.0 - Mostly clear 10 - - - -
31/10:13am 15.1 NNW 22 32 1005.2 - 0.0 - Mostly clear 10 - - - -
31/10:00am 15.1 N 22 31 1005.3 - 0.0 - Mostly clear 10 - - - -
31/09:30am 14.9 N 18 28 1005.9 - 0.0 - Mostly clear 10 - - - -
31/09:00am 14.5 N 14 20 1006.5 F 0.0 Fine Mostly clear 30 - - - -
31/08:30am 12.6 N 7 10 1006.9 - 0.0 - Mostly clear 10 - - - -
31/08:00am 12.0 N 8 10 1007.0 - 0.0 - Partly cloudy 10 - - - -
31/07:30am 11.8 N 11 15 1006.8 - 0.0 - Mostly clear 10 - - - -
31/07:00am 12.8 N 13 16 1007.0 - 0.0 - Partly cloudy 10 - - - -
31/06:30am 12.5 N 9 11 1007.3 - 0.0 - Mostly cloudy 10 - - - -
31/06:00am 9.7 N 11 14 1007.2 F 0.0 Fine Clear 30 - - - -
31/05:30am 10.6 N 14 17 1007.0 - 0.0 - - 10 - - - -
31/05:00am 10.0 NNE 10 14 1007.5 - 0.0 - - 10 - - - -
31/04:30am 10.2 NNE 11 14 1007.6 - 0.0 - - 10 - - - -
31/04:00am 9.7 NNE 11 14 1008.0 - 0.0 - - 10 - - - -
31/03:30am 10.0 NNE 9 12 1008.5 - 0.0 - - 10 - - - -
31/03:00am 10.0 NNE 9 12 1009.0 F 0.0 Fine Clear 30 - - - -
31/02:30am 9.4 NNE 10 13 1009.5 - 0.0 - - 10 - - - -
31/02:00am 10.1 NNE 11 13 1010.0 - 0.0 - - 10 - - - -
31/01:30am 9.9 NNE 9 10 1010.6 - 0.0 - - 10 - - - -
31/01:00am 9.7 NNE 9 12 1010.8 - 0.0 - - 10 - - - -
31/12:30am 10.2 NE 10 12 1011.3 - 0.0 - - 10 - - - -
31/12:00am 11.0 NNE 11 14 1011.7 F 0.0 Fine Clear 30 - - - -
 
Date/Time
CST
Temp

°C
Wind Pressure Rain
since 9am
mm
Weather Cloud Vis
km
Sea
Height
m
Swell
Dir
 
Speed
knots
Gust
knots
hPa Trend Height
m
Period
s
Dir
30/11:30pm 11.0 NNE 10 13 1012.1 - 0.0 - - 10 - - - -
30/11:00pm 12.2 N 10 14 1012.4 - 0.0 - - 10 - - - -
30/10:30pm 12.4 N 9 10 1012.9 - 0.0 - - 10 - - - -
30/10:00pm 13.2 N 9 12 1013.3 - 0.0 - - 10 - - - -
30/09:30pm 13.9 N 9 13 1013.6 - 0.0 - - 10 - - - -
30/09:00pm 14.7 NNW 8 11 1013.8 F 0.0 Fine Partly cloudy 30 - - - -
30/08:30pm 14.5 N 8 11 1014.1 - 0.0 - Mostly clear 10 - - - -
30/08:00pm 15.0 N 8 11 1014.4 - 0.0 - Mostly clear 10 - - - -
30/07:30pm 14.9 N 11 15 1014.6 - 0.0 - Mostly clear 10 - - - -
30/07:00pm 14.9 N 11 15 1014.6 - 0.0 - Mostly clear 10 - - - -
30/06:30pm 14.9 N 11 15 1014.6 - 0.0 - Mostly clear 10 - - - -
30/06:00pm 14.7 NNW 11 15 1014.5 F 0.0 Fine Partly cloudy 30 - - - -
30/05:30pm 15.2 NNW 14 17 1014.4 - 0.0 - Mostly clear 10 - - - -
30/05:00pm 15.1 NNW 14 19 1014.4 - 0.0 - Mostly clear 10 - - - -
30/04:30pm 15.3 NNW 16 20 1014.5 - 0.0 - Mostly clear 10 - - - -
30/04:00pm 15.2 NNW 16 19 1014.8 - 0.0 - Mostly clear 10 - - - -
30/03:30pm 15.5 NW 17 21 1014.9 - 0.0 - Mostly clear 10 - - - -
30/03:00pm 15.8 NW 15 18 1015.2 F 0.0 Fine Mostly cloudy 30 - - - -
30/02:30pm 15.9 NW 15 18 1015.3 - 0.0 - Mostly clear 10 - - - -
30/02:00pm 16.5 NW 15 20 1015.5 - 0.0 - Mostly clear 10 - - - -
30/01:30pm 15.7 NNW 14 18 1016.0 - 0.0 - Mostly clear 10 - - - -
30/01:00pm 16.0 NW 15 18 1016.3 - 0.0 - Mostly clear 10 - - - -
30/12:30pm 15.1 NNW 16 19 1016.8 - 0.0 - Mostly clear 10 - - - -
30/12:00pm 14.9 NNW 16 20 1017.4 F 0.0 Fine Mostly cloudy 25 - - - -
30/11:30am 15.6 NNW 12 16 1017.7 - 0.0 - Mostly clear 10 - - - -
30/11:00am 15.2 NNW 14 19 1017.9 - 0.0 - Mostly clear 10 - - - -
30/10:30am 14.0 NNW 13 18 1018.5 - 0.0 - Mostly clear 10 - - - -
30/10:00am 14.1 N 11 17 1018.4 - 0.0 - Mostly clear 10 - - - -
30/09:30am 13.4 NNW 15 18 1018.7 - 0.0 - Mostly clear 10 - - - -
30/09:00am 13.6 NNW 12 15 1018.4 F 1.0 Fine Mostly cloudy 20 - - - -
30/08:30am 13.3 NNW 13 18 1018.0 - 1.0 - Mostly clear 10 - - - -
30/08:27am 13.3 NNW 13 17 1018.0 - 1.0 - Mostly clear 10 - - - -
30/08:00am 13.0 NNW 13 17 1018.3 - 1.0 - Partly cloudy 10 - - - -
30/07:30am 13.0 NNW 13 19 1018.3 - 1.0 - Mostly clear 10 - - - -
30/07:00am 13.0 NNW 13 16 1018.2 - 1.0 - Mostly clear 10 - - - -
30/06:30am 13.2 NNW 13 17 1017.9 - 1.0 - Mostly cloudy 10 - - - -
30/06:00am 13.0 N 13 18 1017.5 F 1.0 Fine Mostly cloudy 30 - - - -
30/05:30am 13.1 N 14 18 1017.4 - 1.0 - Mostly cloudy 10 - - - -
30/05:00am 13.0 N 13 18 1017.3 - 1.0 - Partly cloudy 10 - - - -
30/04:30am 13.1 N 11 15 1017.3 - 1.0 - Mostly clear 10 - - - -
30/04:00am 13.1 N 9 14 1017.5 - 1.0 - Mostly clear 10 - - - -
30/03:30am 13.2 N 10 14 1017.7 - 1.0 - Mostly clear 10 - - - -
30/03:00am 13.2 NNW 11 15 1017.8 F 1.0 Fine Mostly cloudy 30 - - - -
30/02:30am 13.4 NNW 13 16 1017.9 - 1.0 - Mostly clear 10 - - - -
30/02:00am 13.4 NNW 12 15 1018.1 - 1.0 - Mostly clear 10 - - - -
30/01:30am 13.3 NNW 13 17 1018.4 - 1.0 - Mostly clear 10 - - - -
30/01:00am 13.3 NNW 14 18 1018.2 - 1.0 - Mostly clear 10 - - - -
30/12:30am 13.6 NNW 14 18 1018.3 - 1.0 - Mostly clear 10 - - - -
30/12:00am 13.7 NNW 14 18 1018.4 S 1.0 Fine Mostly cloudy 30 - - - -
 
Date/Time
CST
Temp

°C
Wind Pressure Rain
since 9am
mm
Weather Cloud Vis
km
Sea
Height
m
Swell
Dir
 
Speed
knots
Gust
knots
hPa Trend Height
m
Period
s
Dir
29/11:30pm 13.7 NNW 13 16 1018.5 - 1.0 - Mostly clear 10 - - - -

Other Formats:

Comma delimited format used in spreadsheet applications
http://www.bom.gov.au/fwo/IDS60701/IDS60701.94672.axf

JavaScript Object Notation format (JSON) in row-major order
http://www.bom.gov.au/fwo/IDS60701/IDS60701.94672.json